createdAt,value
2022-09-27T00:00:16.471Z,48.87
2022-09-27T00:04:13.480Z,49.97
2022-09-27T00:08:10.543Z,50.29
2022-09-27T00:12:07.470Z,51.31
2022-09-27T00:16:05.536Z,51.96
2022-09-27T00:20:05.815Z,52.10
2022-09-27T00:24:03.306Z,52.39
2022-09-27T00:28:00.327Z,52.30
2022-09-27T00:31:57.346Z,53.59
2022-09-27T00:35:54.584Z,53.13
2022-09-27T00:39:51.688Z,53.85
2022-09-27T00:44:02.002Z,53.66
2022-09-27T00:48:05.531Z,53.75
2022-09-27T00:52:08.830Z,54.74
2022-09-27T00:56:12.687Z,54.39
2022-09-27T01:00:13.167Z,53.99
2022-09-27T01:04:14.234Z,54.25
2022-09-27T01:08:11.238Z,54.65
2022-09-27T01:12:39.929Z,55.53
2022-09-27T01:17:09.590Z,55.20
2022-09-27T01:21:45.362Z,55.95
2022-09-27T01:26:12.819Z,54.94
2022-09-27T01:30:32.600Z,56.00
2022-09-27T01:34:43.727Z,56.21
2022-09-27T01:39:10.978Z,56.69
2022-09-27T01:43:42.665Z,56.17
2022-09-27T01:47:59.993Z,55.81
2022-09-27T01:52:28.140Z,55.10
2022-09-27T01:56:50.559Z,54.60
2022-09-27T02:00:55.708Z,54.61
2022-09-27T02:04:59.023Z,55.33
2022-09-27T02:09:13.623Z,53.82
2022-09-27T02:13:28.049Z,54.29
2022-09-27T02:18:01.773Z,54.54
2022-09-27T02:22:39.506Z,54.48
2022-09-27T02:26:42.383Z,54.50
2022-09-27T02:30:39.623Z,54.16
2022-09-27T02:34:50.877Z,54.46
2022-09-27T02:38:48.534Z,53.72
2022-09-27T02:42:48.357Z,52.99
2022-09-27T02:47:33.548Z,52.91
2022-09-27T02:51:53.159Z,53.45
2022-09-27T02:56:19.996Z,53.51
2022-09-27T03:01:06.127Z,53.53
2022-09-27T03:05:40.687Z,53.90
2022-09-27T03:09:49.430Z,53.50
2022-09-27T03:14:07.383Z,53.44
2022-09-27T03:18:06.112Z,53.27
2022-09-27T03:22:21.788Z,53.77
2022-09-27T03:26:18.908Z,53.17
2022-09-27T03:30:16.175Z,53.09
2022-09-27T03:34:13.789Z,53.34
2022-09-27T03:38:11.338Z,54.90
2022-09-27T03:42:09.222Z,55.31
2022-09-27T03:46:11.413Z,55.24
2022-09-27T03:50:11.678Z,55.33
2022-09-27T03:54:09.597Z,55.24
2022-09-27T03:58:06.649Z,55.12
2022-09-27T04:02:04.558Z,54.88
2022-09-27T04:06:24.326Z,55.53
2022-09-27T04:10:21.928Z,55.35
2022-09-27T04:14:19.843Z,55.21
2022-09-27T04:18:36.894Z,55.47
2022-09-27T04:22:52.299Z,54.94
2022-09-27T04:26:50.570Z,54.59
2022-09-27T04:30:53.953Z,54.43
2022-09-27T04:35:24.571Z,54.75
2022-09-27T04:39:21.592Z,55.05
2022-09-27T04:43:18.662Z,54.85
2022-09-27T04:47:15.874Z,54.79
2022-09-27T04:51:13.998Z,54.55
2022-09-27T04:55:11.482Z,54.69
2022-09-27T04:59:10.986Z,54.65
2022-09-27T05:03:09.871Z,54.19
2022-09-27T05:07:24.576Z,54.83
2022-09-27T05:11:26.802Z,55.24
2022-09-27T05:15:42.588Z,56.73
2022-09-27T05:20:04.100Z,55.74
2022-09-27T05:24:11.169Z,55.52
2022-09-27T05:28:09.240Z,54.69
2022-09-27T05:32:06.232Z,54.89
2022-09-27T05:36:04.834Z,55.29
2022-09-27T05:40:16.923Z,54.93
2022-09-27T05:44:19.632Z,55.43
2022-09-27T05:48:25.310Z,55.51
2022-09-27T05:52:36.485Z,55.67
2022-09-27T05:56:33.527Z,55.31
2022-09-27T06:00:54.419Z,54.55
2022-09-27T06:05:17.608Z,54.71
2022-09-27T06:09:44.324Z,54.73
2022-09-27T06:13:42.594Z,54.68
2022-09-27T06:17:41.290Z,54.08
2022-09-27T06:21:49.846Z,54.58
2022-09-27T06:25:47.509Z,54.78
2022-09-27T06:29:52.395Z,55.07
2022-09-27T06:34:05.113Z,55.17
2022-09-27T06:38:09.315Z,55.32
2022-09-27T06:42:11.225Z,55.31
2022-09-27T06:46:31.637Z,55.52
2022-09-27T06:50:44.179Z,55.10
2022-09-27T06:54:42.150Z,55.58
2022-09-27T06:58:57.656Z,55.82
2022-09-27T07:03:23.337Z,55.65
2022-09-27T07:07:34.195Z,55.79
2022-09-27T07:11:31.539Z,56.01
2022-09-27T07:15:28.464Z,55.17
2022-09-27T07:19:25.720Z,56.09
2022-09-27T07:23:22.969Z,55.91
2022-09-27T07:27:20.114Z,56.19
2022-09-27T07:31:17.556Z,55.52
2022-09-27T07:35:15.713Z,55.50
2022-09-27T07:39:14.352Z,55.66
2022-09-27T07:43:12.397Z,55.51
2022-09-27T07:47:11.105Z,55.39
2022-09-27T07:51:34.309Z,54.95
2022-09-27T07:55:37.480Z,55.43
2022-09-27T07:59:40.705Z,55.54
2022-09-27T08:03:40.511Z,56.73
2022-09-27T08:07:39.745Z,57.12
2022-09-27T08:11:37.479Z,56.34
2022-09-27T08:15:39.055Z,55.50
2022-09-27T08:19:36.385Z,55.31
2022-09-27T08:23:55.600Z,55.66
2022-09-27T08:28:04.900Z,55.88
2022-09-27T08:32:16.387Z,56.17
2022-09-27T08:36:16.863Z,56.19
2022-09-27T08:40:17.761Z,54.50
2022-09-27T08:44:48.641Z,53.52
2022-09-27T08:48:54.433Z,52.30
2022-09-27T08:53:23.603Z,53.86
2022-09-27T08:57:24.550Z,53.44
2022-09-27T09:01:27.883Z,53.27
2022-09-27T09:05:36.419Z,52.98
2022-09-27T09:10:03.528Z,53.38
2022-09-27T09:14:45.961Z,53.02
2022-09-27T09:19:08.026Z,52.39
2022-09-27T09:24:31.964Z,51.87
2022-09-27T09:28:53.686Z,52.51
2022-09-27T09:33:21.066Z,52.63
2022-09-27T09:37:49.889Z,48.94
2022-09-27T09:42:05.012Z,47.36
2022-09-27T09:46:17.470Z,45.78
2022-09-27T09:50:42.423Z,45.43
2022-09-27T09:55:02.451Z,43.37
2022-09-27T09:59:11.165Z,42.95
2022-09-27T10:03:11.351Z,42.92
2022-09-27T10:07:09.463Z,42.57
2022-09-27T10:11:12.365Z,43.70
2022-09-27T10:15:31.046Z,46.38
2022-09-27T10:19:34.471Z,50.85
2022-09-27T10:23:34.532Z,51.99
2022-09-27T10:27:55.966Z,52.29
2022-09-27T10:31:59.782Z,51.31
2022-09-27T10:36:25.974Z,51.41
2022-09-27T10:40:34.167Z,50.19
2022-09-27T10:44:34.615Z,48.14
2022-09-27T10:49:22.430Z,44.58
2022-09-27T10:53:22.567Z,44.29
2022-09-27T10:57:30.978Z,46.73
2022-09-27T11:01:48.496Z,48.56
2022-09-27T11:06:23.723Z,47.45
2022-09-27T11:10:37.445Z,45.12
2022-09-27T11:14:36.573Z,46.46
2022-09-27T11:19:11.994Z,48.04
2022-09-27T11:23:55.053Z,47.31
2022-09-27T11:27:59.800Z,47.94
2022-09-27T11:32:16.689Z,47.51
2022-09-27T11:37:02.867Z,43.78
2022-09-27T11:41:36.606Z,47.21
2022-09-27T11:46:16.638Z,49.73
2022-09-27T11:51:07.438Z,52.54
2022-09-27T11:55:34.340Z,52.04
2022-09-27T12:00:19.641Z,53.99
2022-09-27T12:04:51.668Z,54.30
2022-09-27T12:09:22.141Z,53.44
2022-09-27T12:13:41.557Z,52.88
2022-09-27T12:17:47.375Z,50.42
2022-09-27T12:21:45.966Z,45.82
2022-09-27T12:25:47.035Z,43.81
2022-09-27T12:29:51.547Z,42.34
2022-09-27T12:34:35.265Z,44.32
2022-09-27T12:39:05.705Z,47.10
2022-09-27T12:43:19.455Z,48.17
2022-09-27T12:48:14.403Z,46.44
2022-09-27T12:52:25.431Z,46.90
2022-09-27T12:57:01.415Z,44.35
2022-09-27T13:01:05.608Z,44.15
2022-09-27T13:05:26.154Z,44.27
2022-09-27T13:09:54.776Z,45.08
2022-09-27T13:13:59.976Z,46.29
2022-09-27T13:18:01.699Z,48.02
2022-09-27T13:22:38.690Z,50.21
2022-09-27T13:27:01.463Z,46.85
2022-09-27T13:31:07.586Z,43.96
2022-09-27T13:35:20.521Z,42.29
2022-09-27T13:39:23.255Z,40.71
2022-09-27T13:44:07.730Z,41.50
2022-09-27T13:48:45.678Z,43.71
2022-09-27T13:53:07.083Z,44.44
2022-09-27T13:57:24.787Z,43.81
2022-09-27T14:01:52.637Z,42.16
2022-09-27T14:06:07.854Z,40.18
2022-09-27T14:10:14.480Z,39.80
2022-09-27T14:14:23.469Z,39.56
2022-09-27T14:18:25.082Z,40.00
2022-09-27T14:22:24.176Z,42.08
2022-09-27T14:26:30.070Z,44.96
2022-09-27T14:30:30.410Z,46.34
2022-09-27T14:34:39.874Z,48.71
2022-09-27T14:38:41.864Z,46.66
2022-09-27T14:42:53.979Z,47.70
2022-09-27T14:47:10.646Z,48.90
2022-09-27T14:51:14.069Z,49.34
2022-09-27T14:55:21.345Z,49.74
2022-09-27T14:59:35.208Z,49.98
2022-09-27T15:03:38.424Z,49.18
2022-09-27T15:07:38.054Z,47.24
2022-09-27T15:11:35.336Z,46.68
2022-09-27T15:15:39.889Z,47.67
2022-09-27T15:19:37.059Z,46.30
2022-09-27T15:23:44.101Z,45.14
2022-09-27T15:27:41.059Z,45.44
2022-09-27T15:31:38.047Z,45.34
2022-09-27T15:35:36.850Z,44.24
2022-09-27T15:39:41.732Z,44.77
2022-09-27T15:43:50.096Z,44.41
2022-09-27T15:47:50.340Z,44.07
2022-09-27T15:51:54.438Z,44.49
2022-09-27T15:55:51.408Z,44.46
2022-09-27T15:59:48.439Z,43.56
2022-09-27T16:03:45.460Z,43.38
2022-09-27T16:07:42.472Z,44.08
2022-09-27T16:11:39.421Z,44.37
2022-09-27T16:15:37.425Z,46.01
2022-09-27T16:19:34.414Z,46.80
2022-09-27T16:23:31.361Z,46.31
2022-09-27T16:27:29.402Z,47.29
2022-09-27T16:31:26.415Z,47.88
2022-09-27T16:35:24.455Z,47.52
2022-09-27T16:39:21.474Z,47.42
2022-09-27T16:43:20.018Z,47.52
2022-09-27T16:47:17.129Z,48.09
2022-09-27T16:51:37.202Z,47.65
2022-09-27T16:55:35.921Z,48.03
2022-09-27T16:59:32.917Z,48.44
2022-09-27T17:03:30.151Z,48.87
2022-09-27T17:07:27.110Z,50.16
2022-09-27T17:11:24.087Z,50.23
2022-09-27T17:15:22.378Z,49.88
2022-09-27T17:19:19.459Z,50.43
2022-09-27T17:23:16.465Z,50.29
2022-09-27T17:27:13.472Z,50.03
2022-09-27T17:31:15.550Z,49.87
2022-09-27T17:35:12.648Z,49.21
2022-09-27T17:39:15.525Z,49.67
2022-09-27T17:43:12.574Z,49.37
2022-09-27T17:47:28.069Z,49.61
2022-09-27T17:51:25.219Z,49.58
2022-09-27T17:55:23.363Z,49.88
2022-09-27T17:59:20.451Z,49.63
2022-09-27T18:03:17.370Z,49.71
2022-09-27T18:07:14.619Z,49.83
2022-09-27T18:11:15.471Z,49.32
2022-09-27T18:15:12.860Z,49.71
2022-09-27T18:19:17.212Z,49.88
2022-09-27T18:23:14.257Z,49.82
2022-09-27T18:27:15.866Z,49.81
2022-09-27T18:31:16.956Z,49.83
2022-09-27T18:35:14.101Z,49.91
2022-09-27T18:39:15.876Z,49.47
2022-09-27T18:43:12.858Z,48.94
2022-09-27T18:47:09.861Z,49.48
2022-09-27T18:51:16.347Z,49.39
2022-09-27T18:55:13.633Z,49.00
2022-09-27T18:59:11.585Z,48.68
2022-09-27T19:03:15.408Z,48.92
2022-09-27T19:07:12.574Z,48.88
2022-09-27T19:11:16.043Z,49.85
2022-09-27T19:15:13.072Z,50.33
2022-09-27T19:19:10.242Z,50.54
2022-09-27T19:23:07.432Z,51.09
2022-09-27T19:27:04.432Z,50.93
2022-09-27T19:31:10.586Z,52.14
2022-09-27T19:35:08.867Z,51.96
2022-09-27T19:39:05.952Z,51.34
2022-09-27T19:43:02.932Z,51.73
2022-09-27T19:46:59.963Z,51.99
2022-09-27T19:50:59.725Z,52.25
2022-09-27T19:54:56.719Z,53.70
2022-09-27T19:58:54.650Z,53.31
2022-09-27T20:02:52.121Z,52.73
2022-09-27T20:06:49.203Z,52.84
2022-09-27T20:11:05.903Z,52.90
2022-09-27T20:15:03.867Z,51.95
2022-09-27T20:19:01.642Z,52.34
2022-09-27T20:22:58.564Z,51.39
2022-09-27T20:26:55.583Z,51.81
2022-09-27T20:31:05.213Z,52.04
2022-09-27T20:35:04.078Z,51.49
2022-09-27T20:39:05.831Z,51.76
2022-09-27T20:43:02.811Z,52.28
2022-09-27T20:47:02.115Z,54.06
2022-09-27T20:51:04.450Z,53.39
2022-09-27T20:55:01.774Z,52.68
2022-09-27T20:59:03.172Z,53.94
2022-09-27T21:03:00.808Z,53.01
2022-09-27T21:06:58.957Z,52.74
2022-09-27T21:10:55.969Z,52.82
2022-09-27T21:14:52.898Z,53.54
2022-09-27T21:18:55.877Z,53.64
2022-09-27T21:22:52.841Z,53.47
2022-09-27T21:26:50.001Z,52.62
2022-09-27T21:30:46.928Z,52.47
2022-09-27T21:34:43.897Z,53.44
2022-09-27T21:38:41.077Z,53.16
2022-09-27T21:42:38.295Z,52.90
2022-09-27T21:46:38.667Z,52.52
2022-09-27T21:50:35.729Z,52.46
2022-09-27T21:54:32.680Z,52.38
2022-09-27T21:58:33.785Z,52.26
2022-09-27T22:02:30.776Z,51.99
2022-09-27T22:06:34.103Z,52.87
2022-09-27T22:10:31.159Z,52.92
2022-09-27T22:14:28.128Z,52.55
2022-09-27T22:18:25.117Z,52.26
2022-09-27T22:22:22.087Z,52.57
2022-09-27T22:26:24.114Z,52.19
2022-09-27T22:30:21.046Z,52.35
2022-09-27T22:34:28.982Z,52.29
2022-09-27T22:38:26.323Z,52.25
2022-09-27T22:42:23.358Z,52.52
2022-09-27T22:46:22.103Z,52.67
2022-09-27T22:50:19.345Z,52.09
2022-09-27T22:54:16.478Z,52.38
2022-09-27T22:58:13.466Z,51.94
2022-09-27T23:02:10.486Z,52.08
2022-09-27T23:06:08.936Z,52.16
2022-09-27T23:10:07.109Z,52.96
2022-09-27T23:14:06.662Z,53.08
2022-09-27T23:18:03.970Z,53.34
2022-09-27T23:22:01.753Z,54.33
2022-09-27T23:26:08.190Z,53.86
2022-09-27T23:30:05.965Z,53.33
2022-09-27T23:34:04.968Z,53.30
2022-09-27T23:38:01.905Z,53.57
2022-09-27T23:41:58.871Z,53.59
2022-09-27T23:45:57.326Z,53.72
2022-09-27T23:49:54.714Z,53.32
2022-09-27T23:53:51.667Z,52.70
2022-09-27T23:57:48.604Z,52.50
